Time;durP1;ratioP1;P1;durP2;ratioP2;P2;SDS_P1;SDS_P2;PMS_P1;PMS_P2;Temp;Humidity;BMP_temperature;BMP_pressure;BME280_temperature;BME280_humidity;BME280_pressure;Samples;Min_cycle;Max_cycle;Signal;HPM_P1;HPM_P2
2022/08/15 00:02:24;;;;;;;4.70;4.10;;;23.90;50.40;;;;;;5004365;28;20033;-85
2022/08/15 00:04:50;;;;;;;5.57;3.35;;;23.80;50.40;;;;;;5003135;28;20021;-86
2022/08/15 00:07:16;;;;;;;3.45;3.13;;;23.80;50.60;;;;;;5003462;28;20037;-88
2022/08/15 00:09:42;;;;;;;3.63;3.33;;;23.70;50.50;;;;;;4997022;28;20025;-87
2022/08/15 00:12:08;;;;;;;4.80;4.30;;;23.60;50.40;;;;;;4997425;28;20033;-86
2022/08/15 00:14:36;;;;;;;3.70;3.25;;;23.60;50.50;;;;;;4996622;28;20037;-86
2022/08/15 00:17:07;;;;;;;3.70;3.38;;;23.50;50.40;;;;;;5005759;28;20029;-85
2022/08/15 00:19:33;;;;;;;3.55;2.97;;;23.50;50.60;;;;;;5028409;28;20030;-84
2022/08/15 00:22:05;;;;;;;3.47;3.17;;;23.40;50.50;;;;;;5008536;28;20033;-87
2022/08/15 00:24:33;;;;;;;3.28;3.08;;;23.40;50.70;;;;;;5014939;28;20052;-85
2022/08/15 00:27:03;;;;;;;3.83;3.47;;;23.30;50.50;;;;;;5010169;28;20079;-85
2022/08/15 00:29:31;;;;;;;3.58;3.22;;;23.30;50.70;;;;;;4998422;28;20470;-86
2022/08/15 00:31:59;;;;;;;4.32;3.47;;;23.30;50.90;;;;;;4996235;28;20034;-86
2022/08/15 00:34:26;;;;;;;3.40;3.10;;;23.20;50.60;;;;;;5003789;28;20041;-86
2022/08/15 00:36:52;;;;;;;3.45;3.20;;;23.20;51.00;;;;;;4999581;28;20025;-86
2022/08/15 00:39:22;;;;;;;3.85;2.90;;;23.10;50.60;;;;;;4996598;28;20032;-87
2022/08/15 00:41:50;;;;;;;3.58;3.28;;;23.10;50.70;;;;;;5018159;28;20014;-87
2022/08/15 00:44:24;;;;;;;3.67;2.50;;;23.10;50.80;;;;;;4999040;28;20029;-88
2022/08/15 00:46:56;;;;;;;3.53;3.22;;;23.00;50.80;;;;;;5014985;28;20029;-87
2022/08/15 00:49:25;;;;;;;4.63;2.97;;;22.90;50.70;;;;;;5022383;28;20665;-87
2022/08/15 00:51:59;;;;;;;3.75;3.45;;;22.90;50.70;;;;;;5016554;28;20059;-86
2022/08/15 00:54:32;;;;;;;3.85;3.40;;;22.90;50.80;;;;;;5025694;28;20045;-86
2022/08/15 00:57:08;;;;;;;5.32;2.90;;;22.80;50.70;;;;;;5006532;28;20048;-87
2022/08/15 00:59:40;;;;;;;3.20;2.90;;;22.80;50.70;;;;;;4999124;28;20722;-88
2022/08/15 01:02:09;;;;;;;3.63;3.13;;;22.70;50.60;;;;;;4988906;28;20025;-88
2022/08/15 01:04:36;;;;;;;3.53;3.20;;;22.70;50.70;;;;;;4975230;28;20029;-88
2022/08/15 01:07:03;;;;;;;3.90;3.42;;;22.60;50.50;;;;;;5016844;28;20044;-87
2022/08/15 01:09:30;;;;;;;3.28;2.97;;;22.60;50.70;;;;;;4994341;28;20059;-86
2022/08/15 01:12:08;;;;;;;4.25;3.70;;;22.50;50.50;;;;;;4975392;28;20127;-89
2022/08/15 01:14:36;;;;;;;3.70;3.40;;;22.50;50.70;;;;;;5009514;28;20037;-85
2022/08/15 01:17:04;;;;;;;4.07;3.65;;;22.40;50.50;;;;;;4990395;28;20448;-87
2022/08/15 01:19:37;;;;;;;4.07;3.78;;;22.40;50.60;;;;;;4976787;28;20026;-85
2022/08/15 01:22:30;;;;;;;4.68;3.47;;;22.30;50.50;;;;;;5032232;28;20025;-87
2022/08/15 01:25:08;;;;;;;4.57;3.78;;;22.30;50.60;;;;;;5000519;28;20021;-87
2022/08/15 01:27:44;;;;;;;4.35;3.92;;;22.20;50.40;;;;;;5030928;28;20025;-86
2022/08/15 01:30:17;;;;;;;5.82;3.95;;;22.20;50.90;;;;;;4993576;28;20028;-88
2022/08/15 01:32:46;;;;;;;5.10;4.70;;;22.20;50.70;;;;;;4999763;28;20045;-85
2022/08/15 01:35:14;;;;;;;4.90;4.25;;;22.10;50.50;;;;;;5036190;28;20021;-85
2022/08/15 01:37:41;;;;;;;6.65;4.68;;;22.10;50.60;;;;;;5018338;28;20384;-85
2022/08/15 01:40:14;;;;;;;4.50;3.92;;;22.00;50.40;;;;;;5027821;28;20025;-86
2022/08/15 01:42:44;;;;;;;6.88;4.57;;;22.00;50.60;;;;;;5015112;28;20368;-86
2022/08/15 01:45:19;;;;;;;6.43;5.07;;;22.00;50.60;;;;;;4978517;28;20029;-88
2022/08/15 01:48:12;;;;;;;6.75;5.20;;;21.90;50.50;;;;;;5017766;28;20021;-88
2022/08/15 01:50:49;;;;;;;6.38;5.55;;;21.90;50.70;;;;;;5008554;28;20083;-88
2022/08/15 01:53:32;;;;;;;5.32;4.82;;;21.90;50.70;;;;;;4999172;28;20032;-88
2022/08/15 01:56:19;;;;;;;6.18;5.57;;;21.90;50.70;;;;;;4982222;28;20033;-86
2022/08/15 01:58:46;;;;;;;7.05;6.20;;;21.80;50.70;;;;;;5016672;28;20037;-85
2022/08/15 02:01:20;;;;;;;6.18;5.63;;;21.80;50.70;;;;;;4991019;28;20496;-85
2022/08/15 02:03:48;;;;;;;6.03;5.43;;;21.80;50.90;;;;;;5006453;28;20045;-85
2022/08/15 02:06:22;;;;;;;6.53;5.93;;;21.70;50.80;;;;;;5025432;28;20036;-84
2022/08/15 02:08:52;;;;;;;7.07;6.18;;;21.70;50.90;;;;;;4994975;28;20029;-85
2022/08/15 02:11:28;;;;;;;8.43;6.53;;;21.60;50.80;;;;;;5006023;28;20053;-85
2022/08/15 02:13:56;;;;;;;12.13;7.30;;;21.60;51.00;;;;;;5006932;28;20033;-85
2022/08/15 02:16:31;;;;;;;7.90;6.13;;;21.60;51.00;;;;;;5013384;28;20029;-85
2022/08/15 02:18:59;;;;;;;7.10;6.38;;;21.60;51.10;;;;;;4989488;28;20099;-84
2022/08/15 02:21:28;;;;;;;8.65;7.60;;;21.60;51.10;;;;;;4988582;28;20111;-84
2022/08/15 02:23:55;;;;;;;7.03;5.72;;;21.50;51.10;;;;;;4992300;28;20418;-85
2022/08/15 02:26:22;;;;;;;8.07;6.78;;;21.50;51.20;;;;;;4991714;28;20029;-86
2022/08/15 02:28:49;;;;;;;9.40;7.13;;;21.50;51.30;;;;;;5009358;28;20043;-86
2022/08/15 02:31:19;;;;;;;8.77;6.57;;;21.40;51.20;;;;;;5007532;28;20405;-85
2022/08/15 02:33:53;;;;;;;6.97;6.00;;;21.40;51.40;;;;;;5031626;28;20045;-86
2022/08/15 02:36:20;;;;;;;9.23;6.65;;;21.40;51.50;;;;;;4975409;28;20025;-86
2022/08/15 02:38:49;;;;;;;7.60;6.80;;;21.40;51.50;;;;;;5008090;28;20043;-85
2022/08/15 02:41:32;;;;;;;7.63;6.93;;;21.30;51.50;;;;;;5045466;28;20103;-86
2022/08/15 02:43:59;;;;;;;7.87;7.07;;;21.30;51.70;;;;;;5039561;28;20053;-85
2022/08/15 02:46:29;;;;;;;8.52;7.35;;;21.30;51.70;;;;;;5015297;28;20270;-87
2022/08/15 02:49:01;;;;;;;9.80;7.65;;;21.20;51.60;;;;;;5048828;28;20170;-85
2022/08/15 02:51:33;;;;;;;8.68;7.78;;;21.20;51.60;;;;;;5056891;28;20021;-83
2022/08/15 02:53:59;;;;;;;9.77;7.88;;;21.20;51.80;;;;;;5019308;28;20045;-87
2022/08/15 02:56:27;;;;;;;9.18;8.20;;;21.20;51.90;;;;;;5008386;28;20050;-86
2022/08/15 02:58:54;;;;;;;9.32;8.40;;;21.20;52.00;;;;;;5016827;28;20037;-86
2022/08/15 03:01:22;;;;;;;8.90;8.00;;;21.20;52.00;;;;;;5005474;28;20029;-84
2022/08/15 03:03:53;;;;;;;9.48;7.63;;;21.20;52.10;;;;;;4994348;28;20033;-85
2022/08/15 03:06:24;;;;;;;9.15;8.25;;;21.10;52.00;;;;;;5012481;28;21296;-86
2022/08/15 03:08:53;;;;;;;9.35;8.45;;;21.10;52.10;;;;;;5010610;28;20458;-84
2022/08/15 03:11:20;;;;;;;9.23;8.20;;;21.10;52.30;;;;;;5032823;28;20039;-85
2022/08/15 03:13:47;;;;;;;10.35;8.68;;;21.10;52.40;;;;;;4977776;28;20114;-85
2022/08/15 03:16:15;;;;;;;11.25;8.80;;;21.10;52.50;;;;;;4994103;28;20028;-85
2022/08/15 03:18:43;;;;;;;9.23;8.23;;;21.00;52.40;;;;;;4987609;28;20041;-85
2022/08/15 03:21:14;;;;;;;9.68;8.27;;;21.00;52.50;;;;;;5018396;28;20029;-85
2022/08/15 03:23:48;;;;;;;12.20;7.95;;;21.00;52.70;;;;;;5008937;28;20491;-86
2022/08/15 03:26:21;;;;;;;8.15;7.43;;;20.90;52.60;;;;;;5021309;28;20727;-85
2022/08/15 03:28:47;;;;;;;9.07;7.82;;;20.90;52.80;;;;;;5000787;28;20037;-85
2022/08/15 03:31:14;;;;;;;8.77;7.85;;;20.90;52.90;;;;;;5004300;28;20051;-84
2022/08/15 03:33:43;;;;;;;8.13;7.32;;;20.90;53.00;;;;;;4978495;28;20051;-86
2022/08/15 03:36:10;;;;;;;10.18;7.47;;;20.80;53.00;;;;;;4995862;28;20025;-86
2022/08/15 03:38:36;;;;;;;14.27;8.05;;;20.80;53.20;;;;;;5010373;28;20030;-86
2022/08/15 03:41:06;;;;;;;8.45;7.65;;;20.80;53.30;;;;;;5012213;28;20025;-86
2022/08/15 03:43:36;;;;;;;8.90;8.00;;;20.80;53.60;;;;;;5020445;28;20040;-84
2022/08/15 03:46:07;;;;;;;9.20;7.22;;;20.80;53.70;;;;;;5022259;28;20032;-85
2022/08/15 03:48:42;;;;;;;9.13;8.23;;;20.70;54.30;;;;;;5003692;28;20372;-85
2022/08/15 03:51:10;;;;;;;8.63;7.60;;;20.70;53.90;;;;;;4979931;28;20034;-86
2022/08/15 03:53:43;;;;;;;7.28;6.68;;;20.70;54.00;;;;;;5000734;28;20110;-85
2022/08/15 03:56:18;;;;;;;8.20;7.30;;;20.70;54.20;;;;;;4975216;28;20033;-87
2022/08/15 03:58:46;;;;;;;7.80;7.05;;;20.70;54.40;;;;;;5024918;28;20569;-87
2022/08/15 04:01:17;;;;;;;7.55;6.75;;;20.70;54.40;;;;;;4993948;28;20014;-85
2022/08/15 04:03:45;;;;;;;8.20;7.47;;;20.70;54.60;;;;;;5021090;28;20083;-86
2022/08/15 04:06:14;;;;;;;9.88;7.85;;;20.70;54.70;;;;;;5015183;28;20094;-86
2022/08/15 04:08:42;;;;;;;7.68;6.70;;;20.70;54.90;;;;;;5011530;28;20033;-83
2022/08/15 04:11:09;;;;;;;8.13;7.32;;;20.70;54.90;;;;;;5028536;28;20059;-86
2022/08/15 04:13:39;;;;;;;7.20;6.60;;;20.70;55.10;;;;;;4977799;28;20049;-87
2022/08/15 04:16:06;;;;;;;8.68;7.88;;;20.70;55.20;;;;;;4999181;28;20543;-85
2022/08/15 04:18:32;;;;;;;7.20;6.50;;;20.70;55.30;;;;;;4993346;28;20155;-87
2022/08/15 04:21:02;;;;;;;8.30;7.35;;;20.70;55.50;;;;;;5021248;28;20026;-86
2022/08/15 04:23:29;;;;;;;6.78;6.07;;;20.70;55.60;;;;;;5002127;28;20081;-87
2022/08/15 04:25:55;;;;;;;8.05;6.50;;;20.70;55.60;;;;;;5003482;28;20025;-87
2022/08/15 04:28:26;;;;;;;8.77;6.78;;;20.70;55.70;;;;;;4982540;28;20033;-87
2022/08/15 04:30:52;;;;;;;7.28;6.57;;;20.70;55.90;;;;;;5000864;28;20087;-87
2022/08/15 04:33:22;;;;;;;7.30;6.68;;;20.80;56.20;;;;;;5012248;28;20037;-87
2022/08/15 04:35:58;;;;;;;6.78;6.13;;;20.70;56.10;;;;;;5002871;28;20488;-87
2022/08/15 04:38:25;;;;;;;7.90;7.07;;;20.80;56.50;;;;;;5011674;28;20037;-87
2022/08/15 04:40:53;;;;;;;6.65;5.97;;;20.80;56.50;;;;;;5002668;28;20111;-85
2022/08/15 04:43:21;;;;;;;7.95;7.15;;;20.80;56.60;;;;;;5016426;28;20025;-86
2022/08/15 04:45:51;;;;;;;7.53;6.82;;;20.80;56.70;;;;;;5010097;28;20026;-87
2022/08/15 04:48:18;;;;;;;7.20;6.60;;;20.90;57.10;;;;;;5009067;28;20594;-85
2022/08/15 04:50:48;;;;;;;8.15;7.30;;;20.90;57.20;;;;;;5015539;28;20037;-87
2022/08/15 04:53:18;;;;;;;6.80;6.20;;;20.90;57.30;;;;;;5006677;28;20044;-88
2022/08/15 04:55:44;;;;;;;7.00;6.40;;;20.90;57.40;;;;;;4998806;28;20021;-87
2022/08/15 04:58:13;;;;;;;7.15;6.45;;;20.90;57.50;;;;;;4992575;28;20037;-86
2022/08/15 05:00:44;;;;;;;7.70;7.00;;;21.00;57.90;;;;;;5023625;28;20524;-87
2022/08/15 05:03:16;;;;;;;7.55;6.85;;;21.00;58.00;;;;;;5011796;28;20031;-84
2022/08/15 05:05:52;;;;;;;7.88;7.10;;;21.00;58.10;;;;;;5011280;28;20144;-84
2022/08/15 05:08:21;;;;;;;7.13;6.47;;;21.00;58.20;;;;;;4963460;28;20040;-85
2022/08/15 05:10:54;;;;;;;7.28;6.68;;;21.10;58.40;;;;;;5025748;28;20045;-86
2022/08/15 05:13:25;;;;;;;7.40;6.70;;;21.20;58.80;;;;;;5001769;28;20102;-86
2022/08/15 05:15:51;;;;;;;7.72;7.03;;;21.20;58.80;;;;;;5019956;28;20033;-83
2022/08/15 05:18:17;;;;;;;7.15;6.55;;;21.20;58.80;;;;;;5006415;28;20043;-87
2022/08/15 05:20:43;;;;;;;9.32;8.40;;;21.30;59.00;;;;;;5017838;28;20589;-91
2022/08/15 05:23:12;;;;;;;9.20;7.70;;;21.30;59.00;;;;;;4998201;28;20029;-90
2022/08/15 05:25:55;;;;;;;8.18;7.45;;;21.40;59.20;;;;;;5009347;28;20037;-88
2022/08/15 05:28:23;;;;;;;8.45;7.43;;;21.50;59.50;;;;;;5011377;28;20033;-88
2022/08/15 05:30:52;;;;;;;8.15;7.30;;;21.60;59.60;;;;;;4997375;28;20028;-91
2022/08/15 05:33:22;;;;;;;7.85;7.25;;;21.60;59.60;;;;;;4991804;28;20104;-90
2022/08/15 05:35:53;;;;;;;8.48;6.93;;;21.70;59.80;;;;;;5016814;28;20026;-90
2022/08/15 05:38:32;;;;;;;7.82;7.13;;;21.70;59.70;;;;;;5012797;28;20029;-87
2022/08/15 05:41:33;;;;;;;8.18;7.45;;;21.80;59.90;;;;;;5025344;28;20738;-88
2022/08/15 05:44:52;;;;;;;9.45;8.15;;;21.80;60.10;;;;;;5032006;28;20025;-87
2022/08/15 05:47:31;;;;;;;8.32;7.53;;;21.90;60.10;;;;;;4971924;28;20032;-87
2022/08/15 05:50:07;;;;;;;8.20;7.43;;;22.00;60.20;;;;;;4991830;28;20037;-87
2022/08/15 05:53:11;;;;;;;9.50;7.50;;;22.00;60.00;;;;;;4992636;28;20025;-87
2022/08/15 05:55:42;;;;;;;7.93;7.13;;;22.00;60.30;;;;;;4995180;28;20056;-87
2022/08/15 05:58:29;;;;;;;9.20;7.47;;;22.10;60.30;;;;;;5024206;28;20053;-86
2022/08/15 06:01:18;;;;;;;9.50;8.68;;;22.20;60.50;;;;;;5030156;28;20013;-88
2022/08/15 06:04:09;;;;;;;7.88;7.18;;;22.20;60.70;;;;;;4969931;28;20041;-85
2022/08/15 06:06:38;;;;;;;8.38;7.35;;;22.20;60.60;;;;;;5021441;28;20034;-86
2022/08/15 06:09:31;;;;;;;9.27;8.38;;;22.30;60.60;;;;;;5013183;28;20034;-90
2022/08/15 06:12:03;;;;;;;8.65;7.70;;;22.30;60.80;;;;;;4999655;28;20071;-93
2022/08/15 06:14:42;;;;;;;9.57;8.73;;;22.30;60.70;;;;;;5016610;28;20859;-91
2022/08/15 06:17:22;;;;;;;10.38;8.77;;;22.40;61.20;;;;;;4986065;28;20159;-93
2022/08/15 06:19:51;;;;;;;10.13;9.13;;;22.40;61.30;;;;;;5002425;28;20534;-93
2022/08/15 06:22:48;;;;;;;12.02;10.75;;;22.50;61.40;;;;;;4997363;28;20048;-88
2022/08/15 06:25:53;;;;;;;17.35;12.45;;;22.60;62.00;;;;;;5031083;28;20037;-93
2022/08/15 06:28:38;;;;;;;13.02;11.63;;;22.60;62.10;;;;;;5021257;28;20084;-92
2022/08/15 06:31:19;;;;;;;12.20;10.90;;;22.70;62.30;;;;;;5004982;28;20052;-90
2022/08/15 06:33:56;;;;;;;13.43;12.18;;;22.70;62.30;;;;;;5004985;28;20037;-91
2022/08/15 06:36:41;;;;;;;12.98;11.50;;;22.70;62.40;;;;;;4981312;28;20036;-81
2022/08/15 06:39:22;;;;;;;14.55;12.15;;;22.70;62.60;;;;;;5013428;28;20118;-84
2022/08/15 06:41:58;;;;;;;13.25;11.82;;;22.70;62.60;;;;;;5015558;28;20557;-85
2022/08/15 06:44:33;;;;;;;12.50;11.23;;;22.70;62.50;;;;;;5022667;28;20052;-83
2022/08/15 06:47:07;;;;;;;14.32;12.80;;;22.60;62.30;;;;;;5034770;28;20074;-84
2022/08/15 06:49:37;;;;;;;12.40;11.18;;;22.60;62.30;;;;;;5018089;28;20452;-82
2022/08/15 06:52:07;;;;;;;13.93;11.75;;;22.70;62.50;;;;;;5021312;28;20458;-83
2022/08/15 06:54:35;;;;;;;13.38;12.13;;;22.70;62.50;;;;;;5022341;28;20041;-82
2022/08/15 06:57:20;;;;;;;12.95;11.73;;;22.70;62.40;;;;;;5006582;28;20045;-84
2022/08/15 07:00:09;;;;;;;14.00;12.00;;;22.70;62.20;;;;;;5031263;28;20025;-84
2022/08/15 07:03:11;;;;;;;14.30;12.35;;;22.70;62.20;;;;;;5029647;28;20029;-84
2022/08/15 07:05:47;;;;;;;12.30;11.18;;;22.70;62.00;;;;;;4999290;28;20419;-85
2022/08/15 07:08:26;;;;;;;26.75;13.35;;;22.80;61.80;;;;;;5015218;28;20039;-85
2022/08/15 07:11:09;;;;;;;12.77;11.30;;;22.80;61.70;;;;;;5001921;28;20111;-85
2022/08/15 07:13:48;;;;;;;15.93;11.02;;;22.80;61.50;;;;;;4996767;28;20053;-81
2022/08/15 07:16:30;;;;;;;14.82;10.88;;;22.90;61.40;;;;;;5009958;28;20167;-83
2022/08/15 07:19:00;;;;;;;14.32;11.35;;;23.00;61.30;;;;;;4992627;28;20223;-83
2022/08/15 07:21:46;;;;;;;14.43;10.77;;;23.10;61.00;;;;;;5040803;28;20029;-85
2022/08/15 07:24:25;;;;;;;14.77;10.68;;;23.20;60.70;;;;;;5023055;28;20035;-87
2022/08/15 07:27:03;;;;;;;14.73;11.30;;;23.30;60.70;;;;;;5058285;28;20041;-85
2022/08/15 07:29:37;;;;;;;12.63;11.35;;;23.40;60.50;;;;;;5024937;28;20060;-85
2022/08/15 07:32:08;;;;;;;13.57;11.50;;;23.40;60.30;;;;;;5016261;28;20061;-84
2022/08/15 07:34:35;;;;;;;14.73;12.32;;;23.50;60.40;;;;;;5017826;28;20033;-83
2022/08/15 07:37:05;;;;;;;14.63;13.07;;;23.50;60.30;;;;;;5004879;28;20357;-83
2022/08/15 07:39:39;;;;;;;16.67;12.68;;;23.50;60.20;;;;;;4998792;28;20450;-84
2022/08/15 07:42:20;;;;;;;16.77;12.50;;;23.50;60.20;;;;;;4998289;28;20040;-86
2022/08/15 07:44:53;;;;;;;15.77;13.60;;;23.40;60.10;;;;;;5014954;28;20038;-84
2022/08/15 07:47:21;;;;;;;;;;;23.40;60.10;;;;;;4991500;28;20048;-90
2022/08/15 07:50:47;;;;;;;18.70;13.50;;;23.40;60.00;;;;;;5015935;28;19917;-89
2022/08/15 07:53:20;;;;;;;27.25;15.60;;;23.40;60.20;;;;;;4934565;28;20045;-87
2022/08/15 07:56:12;;;;;;;15.30;12.68;;;23.40;60.20;;;;;;4937041;28;20588;-85
2022/08/15 07:58:40;;;;;;;14.52;12.55;;;23.30;60.20;;;;;;4964634;28;20464;-86
2022/08/15 08:01:22;;;;;;;14.05;12.65;;;23.30;60.20;;;;;;4982460;28;20072;-87
2022/08/15 08:04:13;;;;;;;14.98;13.60;;;23.30;60.30;;;;;;4983123;28;20034;-85
2022/08/15 08:07:09;;;;;;;15.00;13.43;;;23.30;60.40;;;;;;4986530;28;20478;-84
2022/08/15 08:09:46;;;;;;;16.65;14.40;;;23.20;60.10;;;;;;4951685;28;20382;-85
2022/08/15 08:12:49;;;;;;;13.77;12.48;;;23.30;60.40;;;;;;4971432;28;20030;-87
2022/08/15 08:15:48;;;;;;;16.60;13.45;;;23.20;60.30;;;;;;4971080;28;20191;-85
2022/08/15 08:18:57;;;;;;;14.63;13.00;;;23.20;60.30;;;;;;4988339;28;20111;-85
2022/08/15 08:21:52;;;;;;;15.60;12.50;;;23.20;60.30;;;;;;4952136;28;20092;-83
2022/08/15 08:24:35;;;;;;;14.50;12.73;;;23.20;60.40;;;;;;4955764;28;20034;-85
2022/08/15 08:27:16;;;;;;;13.38;11.98;;;23.30;60.60;;;;;;4973019;28;20525;-81
2022/08/15 08:29:58;;;;;;;14.13;12.35;;;23.30;60.70;;;;;;4985445;28;20107;-83
2022/08/15 08:32:52;;;;;;;12.60;11.32;;;23.30;60.70;;;;;;4970333;28;20568;-82
2022/08/15 08:35:33;;;;;;;17.63;12.30;;;23.40;61.00;;;;;;4969434;28;20046;-82
2022/08/15 08:38:20;;;;;;;16.63;11.77;;;23.40;60.70;;;;;;4984290;28;20034;-83
2022/08/15 08:44:24;;;;;;;14.02;12.13;;;23.50;61.10;;;;;;4968563;28;20084;-82
2022/08/15 08:47:01;;;;;;;13.50;12.10;;;23.50;61.30;;;;;;4966479;28;20031;-83
2022/08/15 08:50:14;;;;;;;14.00;12.60;;;23.50;61.40;;;;;;4985991;28;20050;-82
2022/08/15 08:52:46;;;;;;;13.10;11.60;;;23.50;61.60;;;;;;4955861;28;20034;-81
2022/08/15 08:55:35;;;;;;;13.23;12.02;;;23.50;61.50;;;;;;4984933;28;20034;-85
2022/08/15 08:58:07;;;;;;;14.07;12.65;;;23.50;61.70;;;;;;5012902;28;20068;-80
2022/08/15 09:00:37;;;;;;;;;;;23.50;61.60;;;;;;5005888;28;20033;-78
2022/08/15 09:03:11;;;;;;;12.82;11.40;;;23.60;61.60;;;;;;5024488;28;19921;-79
2022/08/15 09:05:52;;;;;;;15.00;13.35;;;23.60;61.60;;;;;;5003495;28;21236;-79
2022/08/15 09:08:32;;;;;;;13.50;12.20;;;23.60;61.70;;;;;;5006367;28;20211;-80
2022/08/15 09:11:05;;;;;;;15.35;13.50;;;23.60;62.00;;;;;;5012512;28;20286;-79
2022/08/15 09:13:35;;;;;;;;;;;23.60;62.00;;;;;;5013143;28;20056;-79
2022/08/15 09:16:14;;;;;;;14.90;12.00;;;23.60;61.80;;;;;;5009799;28;20398;-80
2022/08/15 09:18:50;;;;;;;15.75;14.10;;;23.60;61.90;;;;;;4998929;28;20022;-80
2022/08/15 09:21:18;;;;;;;18.38;14.55;;;23.60;62.30;;;;;;5010327;28;20009;-80
2022/08/15 09:23:45;;;;;;;14.75;13.25;;;23.60;62.40;;;;;;5013805;28;20030;-79
2022/08/15 09:26:24;;;;;;;15.57;13.98;;;23.60;62.60;;;;;;4994819;28;20033;-79
2022/08/15 09:29:17;;;;;;;18.02;14.43;;;23.60;63.00;;;;;;5008347;28;20435;-79
2022/08/15 09:31:54;;;;;;;16.33;14.55;;;23.60;63.10;;;;;;5024195;28;20033;-80
2022/08/15 09:34:26;;;;;;;15.98;14.20;;;23.60;63.10;;;;;;4989197;28;20057;-79
2022/08/15 09:37:00;;;;;;;18.80;16.67;;;23.60;63.30;;;;;;5011754;28;20038;-79
2022/08/15 09:39:38;;;;;;;17.75;16.00;;;23.70;63.50;;;;;;5012456;28;20282;-80
2022/08/15 09:42:31;;;;;;;18.75;16.98;;;23.70;63.40;;;;;;5007973;28;20057;-81
2022/08/15 09:45:36;;;;;;;19.70;17.70;;;23.80;64.00;;;;;;5013907;28;20246;-80
2022/08/15 09:48:14;;;;;;;19.40;17.38;;;23.90;64.10;;;;;;4981905;28;20042;-79
2022/08/15 09:51:04;;;;;;;20.83;17.75;;;23.90;63.70;;;;;;5007511;28;20125;-80
2022/08/15 09:53:40;;;;;;;18.08;16.42;;;24.00;64.20;;;;;;5006911;28;20073;-80
2022/08/15 09:56:11;;;;;;;18.23;16.55;;;24.10;64.20;;;;;;5010255;28;20022;-80
2022/08/15 09:59:04;;;;;;;19.15;17.45;;;24.20;64.30;;;;;;5018509;28;20200;-80
2022/08/15 10:01:40;;;;;;;19.67;17.60;;;24.20;64.60;;;;;;5010784;28;20033;-82
2022/08/15 10:04:12;;;;;;;20.55;17.80;;;24.30;64.50;;;;;;4995303;28;20021;-80
2022/08/15 10:07:04;;;;;;;17.73;16.10;;;24.40;64.80;;;;;;5022635;28;20770;-81
2022/08/15 10:09:33;;;;;;;17.77;15.60;;;24.40;65.00;;;;;;5023240;28;20064;-81
2022/08/15 10:12:08;;;;;;;16.70;15.00;;;24.40;64.60;;;;;;4993096;28;20035;-81
2022/08/15 10:14:51;;;;;;;17.40;15.73;;;24.50;64.80;;;;;;5016070;28;20137;-80
2022/08/15 10:17:41;;;;;;;14.95;13.43;;;24.50;64.80;;;;;;5020345;28;20029;-80
2022/08/15 10:20:16;;;;;;;16.52;14.90;;;24.70;64.90;;;;;;5026060;28;20048;-79
2022/08/15 10:22:53;;;;;;;18.88;15.13;;;24.80;64.70;;;;;;5011441;28;20526;-79
2022/08/15 10:25:22;;;;;;;14.52;12.98;;;25.00;65.00;;;;;;5018046;28;20400;-79
2022/08/15 10:28:19;;;;;;;15.85;14.25;;;25.00;64.60;;;;;;4996309;28;20026;-81
2022/08/15 10:31:01;;;;;;;18.50;15.88;;;25.00;64.80;;;;;;5029668;28;20029;-79
2022/08/15 10:33:33;;;;;;;16.25;14.55;;;25.00;64.80;;;;;;5010050;28;20056;-79
2022/08/15 10:36:25;;;;;;;17.00;15.23;;;25.00;65.00;;;;;;5011893;28;20403;-80
2022/08/15 10:39:11;;;;;;;18.48;16.42;;;25.00;65.30;;;;;;4975912;28;20228;-81
2022/08/15 10:41:40;;;;;;;17.48;15.98;;;25.00;65.20;;;;;;5035992;28;20407;-81
2022/08/15 10:44:14;;;;;;;16.80;15.07;;;25.00;65.20;;;;;;5018272;28;20041;-82
2022/08/15 10:46:51;;;;;;;16.58;14.88;;;24.90;65.40;;;;;;4996358;28;20383;-81
2022/08/15 10:49:27;;;;;;;17.10;15.43;;;24.90;65.40;;;;;;5029084;28;20380;-81
2022/08/15 10:52:32;;;;;;;17.05;15.43;;;24.90;65.40;;;;;;4994260;28;20026;-80
2022/08/15 10:55:32;;;;;;;18.15;16.40;;;24.90;65.60;;;;;;4984372;28;20219;-82
2022/08/15 10:58:10;;;;;;;18.23;16.50;;;24.80;65.50;;;;;;5027202;28;20061;-83
2022/08/15 11:01:22;;;;;;;19.10;17.23;;;24.80;65.60;;;;;;5026416;28;20045;-82
2022/08/15 11:04:01;;;;;;;17.08;15.23;;;24.70;65.60;;;;;;5005867;28;20037;-82
2022/08/15 11:06:28;;;;;;;17.25;15.55;;;24.60;65.50;;;;;;4996919;28;20041;-82
2022/08/15 11:09:14;;;;;;;18.25;16.60;;;24.60;65.50;;;;;;5018674;28;20476;-81
2022/08/15 11:11:50;;;;;;;19.23;17.27;;;24.60;65.60;;;;;;4994446;28;20119;-81
2022/08/15 11:14:22;;;;;;;19.27;17.42;;;24.70;65.80;;;;;;5001238;28;20048;-81
2022/08/15 11:16:51;;;;;;;20.75;16.95;;;24.60;66.20;;;;;;5014551;28;20332;-81
2022/08/15 11:19:21;;;;;;;19.45;17.75;;;24.70;65.80;;;;;;5001427;28;20484;-81
2022/08/15 11:21:55;;;;;;;19.83;17.85;;;24.80;66.00;;;;;;4996395;28;20037;-80
2022/08/15 11:24:37;;;;;;;20.85;18.67;;;24.80;65.90;;;;;;5016187;28;20493;-81
2022/08/15 11:27:21;;;;;;;18.60;16.67;;;25.00;66.40;;;;;;5038288;28;20443;-80
2022/08/15 11:29:50;;;;;;;18.20;16.48;;;25.10;66.20;;;;;;5016777;28;20296;-80
2022/08/15 11:32:28;;;;;;;19.58;17.73;;;25.20;65.80;;;;;;5018288;28;20410;-80
2022/08/15 11:34:56;;;;;;;18.48;16.70;;;25.40;65.80;;;;;;5001884;28;20049;-80
2022/08/15 11:37:29;;;;;;;17.42;15.63;;;25.40;65.60;;;;;;5025806;28;20071;-78
2022/08/15 11:39:58;;;;;;;18.80;17.10;;;25.50;65.60;;;;;;5014952;28;20043;-79
2022/08/15 11:42:27;;;;;;;19.08;17.30;;;25.50;65.50;;;;;;5014711;28;20453;-79
2022/08/15 11:44:59;;;;;;;19.58;17.70;;;25.50;65.60;;;;;;5030711;28;20033;-81
2022/08/15 11:47:29;;;;;;;19.23;17.52;;;25.50;65.80;;;;;;5014979;28;20041;-83
2022/08/15 11:49:59;;;;;;;17.63;15.93;;;25.50;65.70;;;;;;5029458;28;20022;-82
2022/08/15 11:52:46;;;;;;;18.80;16.83;;;25.60;65.80;;;;;;4993842;28;20844;-82
2022/08/15 11:55:17;;;;;;;16.10;14.50;;;25.60;65.80;;;;;;5017328;28;20110;-83
2022/08/15 11:57:46;;;;;;;14.35;12.98;;;25.60;65.40;;;;;;5007073;28;20049;-85
2022/08/15 12:00:22;;;;;;;14.55;13.25;;;25.70;65.90;;;;;;5008193;28;20037;-84
2022/08/15 12:02:49;;;;;;;13.93;12.70;;;25.80;65.20;;;;;;5008008;28;20036;-83
2022/08/15 12:05:25;;;;;;;15.15;13.65;;;25.90;64.90;;;;;;5007434;28;20029;-84
2022/08/15 12:07:56;;;;;;;13.75;12.40;;;26.00;64.60;;;;;;4990023;28;20041;-85
2022/08/15 12:10:32;;;;;;;13.38;12.02;;;26.20;64.30;;;;;;5027182;28;20417;-84
2022/08/15 12:12:59;;;;;;;12.02;10.95;;;26.30;64.00;;;;;;4990164;28;20345;-85
2022/08/15 12:15:41;;;;;;;12.25;11.05;;;26.50;63.70;;;;;;5010028;28;20111;-83
2022/08/15 12:18:09;;;;;;;11.30;10.40;;;26.70;63.40;;;;;;5006689;28;20247;-85
2022/08/15 12:20:48;;;;;;;10.32;9.25;;;26.80;63.00;;;;;;5007585;28;20405;-82
2022/08/15 12:23:28;;;;;;;10.05;9.02;;;27.10;62.70;;;;;;4989091;28;20047;-83
2022/08/15 12:25:57;;;;;;;9.98;9.18;;;27.30;62.20;;;;;;5008051;28;20030;-82
2022/08/15 12:28:25;;;;;;;10.88;9.80;;;27.60;61.70;;;;;;5006907;28;20091;-84
2022/08/15 12:30:57;;;;;;;9.30;8.48;;;27.90;61.80;;;;;;5011383;28;20079;-84
2022/08/15 12:33:24;;;;;;;10.27;9.27;;;28.10;60.80;;;;;;5009068;28;20049;-85
2022/08/15 12:35:51;;;;;;;8.48;7.75;;;28.40;60.30;;;;;;5011797;28;20064;-82
2022/08/15 12:38:19;;;;;;;8.77;8.07;;;28.70;59.90;;;;;;5045979;28;20041;-83
2022/08/15 12:40:48;;;;;;;9.15;8.25;;;29.10;59.40;;;;;;5029259;28;20117;-83
2022/08/15 12:43:14;;;;;;;10.20;9.23;;;29.40;58.70;;;;;;5036268;28;20048;-83
2022/08/15 12:45:40;;;;;;;8.48;7.65;;;29.80;58.60;;;;;;5028424;28;20030;-82
2022/08/15 12:48:24;;;;;;;8.07;7.28;;;30.10;57.20;;;;;;4988219;28;20025;-84
2022/08/15 12:50:50;;;;;;;8.30;7.50;;;30.40;57.10;;;;;;5004216;28;20033;-85
2022/08/15 12:53:16;;;;;;;7.93;7.22;;;30.80;56.20;;;;;;5004771;28;20324;-82
2022/08/15 12:55:44;;;;;;;7.53;6.80;;;31.10;55.60;;;;;;5006284;28;20259;-82
2022/08/15 12:58:11;;;;;;;8.10;7.47;;;31.30;55.10;;;;;;5018044;28;20072;-83
2022/08/15 13:00:37;;;;;;;7.53;6.93;;;31.60;54.50;;;;;;5011076;28;20041;-83
2022/08/15 13:03:15;;;;;;;7.30;6.55;;;31.70;54.10;;;;;;4988281;28;20079;-84
2022/08/15 13:05:42;;;;;;;6.78;6.18;;;31.70;53.80;;;;;;5003102;28;20036;-82
2022/08/15 13:08:09;;;;;;;10.95;8.30;;;31.70;53.70;;;;;;5007969;28;20026;-82
2022/08/15 13:10:36;;;;;;;8.80;8.00;;;31.60;53.50;;;;;;4986249;28;20029;-81
2022/08/15 13:13:02;;;;;;;8.45;7.68;;;31.50;53.10;;;;;;5005890;28;20021;-81
2022/08/15 13:15:28;;;;;;;7.95;6.50;;;31.30;53.00;;;;;;5006105;28;20060;-79
2022/08/15 13:17:55;;;;;;;12.13;7.50;;;31.20;52.80;;;;;;5004481;28;20021;-85
2022/08/15 13:25:51;;;;;;;8.00;6.70;;;31.60;51.90;;;;;;5025107;28;20099;-85
2022/08/15 13:28:18;;;;;;;7.47;6.88;;;32.00;51.40;;;;;;5003817;28;20029;-82